sensor_id;sensor_type;location;lat;lon;timestamp;temperature;humidity
15991;DHT22;8100;50.994;4.538;2023-11-21T00:00:07;7.80;99.90
15991;DHT22;8100;50.994;4.538;2023-11-21T00:02:58;9.60;99.90
15991;DHT22;8100;50.994;4.538;2023-11-21T00:05:47;8.00;99.90
15991;DHT22;8100;50.994;4.538;2023-11-21T00:08:34;8.70;99.90
15991;DHT22;8100;50.994;4.538;2023-11-21T00:11:21;9.70;99.90
15991;DHT22;8100;50.994;4.538;2023-11-21T00:14:08;8.10;99.90
15991;DHT22;8100;50.994;4.538;2023-11-21T00:16:56;8.40;99.90
15991;DHT22;8100;50.994;4.538;2023-11-21T00:19:43;7.90;99.90
15991;DHT22;8100;50.994;4.538;2023-11-21T00:22:31;9.30;99.90
15991;DHT22;8100;50.994;4.538;2023-11-21T00:25:19;7.20;99.90
15991;DHT22;8100;50.994;4.538;2023-11-21T00:28:06;7.50;99.90
15991;DHT22;8100;50.994;4.538;2023-11-21T00:30:53;9.20;99.90
15991;DHT22;8100;50.994;4.538;2023-11-21T00:33:40;8.90;99.90
15991;DHT22;8100;50.994;4.538;2023-11-21T00:36:28;7.10;99.90
15991;DHT22;8100;50.994;4.538;2023-11-21T00:39:16;6.60;99.90
15991;DHT22;8100;50.994;4.538;2023-11-21T00:42:03;6.60;99.90
15991;DHT22;8100;50.994;4.538;2023-11-21T00:44:51;6.80;99.90
15991;DHT22;8100;50.994;4.538;2023-11-21T00:47:38;6.80;99.90
15991;DHT22;8100;50.994;4.538;2023-11-21T00:50:25;8.20;99.90
15991;DHT22;8100;50.994;4.538;2023-11-21T00:53:13;7.90;99.90
15991;DHT22;8100;50.994;4.538;2023-11-21T00:56:01;7.10;99.90
15991;DHT22;8100;50.994;4.538;2023-11-21T00:58:49;8.80;99.90
15991;DHT22;8100;50.994;4.538;2023-11-21T01:01:38;7.80;99.90
15991;DHT22;8100;50.994;4.538;2023-11-21T01:04:25;7.10;99.90
15991;DHT22;8100;50.994;4.538;2023-11-21T01:07:12;6.90;99.90
15991;DHT22;8100;50.994;4.538;2023-11-21T01:09:59;7.20;99.90
15991;DHT22;8100;50.994;4.538;2023-11-21T01:12:48;8.30;99.90
15991;DHT22;8100;50.994;4.538;2023-11-21T01:15:35;9.20;99.90
15991;DHT22;8100;50.994;4.538;2023-11-21T01:18:22;6.90;99.90
15991;DHT22;8100;50.994;4.538;2023-11-21T01:21:11;7.10;99.90
15991;DHT22;8100;50.994;4.538;2023-11-21T01:23:58;7.10;99.90
15991;DHT22;8100;50.994;4.538;2023-11-21T01:26:45;9.30;99.90
15991;DHT22;8100;50.994;4.538;2023-11-21T01:29:34;9.10;99.90
15991;DHT22;8100;50.994;4.538;2023-11-21T01:32:21;7.20;99.90
15991;DHT22;8100;50.994;4.538;2023-11-21T01:35:09;9.00;99.90
15991;DHT22;8100;50.994;4.538;2023-11-21T01:37:56;7.70;99.90
15991;DHT22;8100;50.994;4.538;2023-11-21T01:40:43;8.20;99.90
15991;DHT22;8100;50.994;4.538;2023-11-21T01:43:30;7.10;99.90
15991;DHT22;8100;50.994;4.538;2023-11-21T01:46:19;8.10;99.90
15991;DHT22;8100;50.994;4.538;2023-11-21T01:49:07;7.20;99.90
15991;DHT22;8100;50.994;4.538;2023-11-21T01:51:57;9.50;99.90
15991;DHT22;8100;50.994;4.538;2023-11-21T01:54:44;7.20;99.90
15991;DHT22;8100;50.994;4.538;2023-11-21T01:57:31;8.30;99.90
15991;DHT22;8100;50.994;4.538;2023-11-21T02:00:19;8.80;99.90
15991;DHT22;8100;50.994;4.538;2023-11-21T02:03:07;8.10;99.90
15991;DHT22;8100;50.994;4.538;2023-11-21T02:05:56;8.70;99.90
15991;DHT22;8100;50.994;4.538;2023-11-21T02:08:43;9.10;99.90
15991;DHT22;8100;50.994;4.538;2023-11-21T02:11:30;7.30;99.90
15991;DHT22;8100;50.994;4.538;2023-11-21T02:14:20;9.60;99.90
15991;DHT22;8100;50.994;4.538;2023-11-21T02:17:08;9.50;99.90
15991;DHT22;8100;50.994;4.538;2023-11-21T02:19:57;9.10;99.90
15991;DHT22;8100;50.994;4.538;2023-11-21T02:22:49;7.30;99.90
15991;DHT22;8100;50.994;4.538;2023-11-21T02:25:38;9.50;99.90
15991;DHT22;8100;50.994;4.538;2023-11-21T02:28:25;9.80;99.90
15991;DHT22;8100;50.994;4.538;2023-11-21T02:31:12;7.30;99.90
15991;DHT22;8100;50.994;4.538;2023-11-21T02:34:00;7.70;99.90
15991;DHT22;8100;50.994;4.538;2023-11-21T02:36:47;7.90;99.90
15991;DHT22;8100;50.994;4.538;2023-11-21T02:39:36;8.00;99.90
15991;DHT22;8100;50.994;4.538;2023-11-21T02:42:24;7.50;99.90
15991;DHT22;8100;50.994;4.538;2023-11-21T02:45:12;9.90;99.90
15991;DHT22;8100;50.994;4.538;2023-11-21T02:48:00;9.60;99.90
15991;DHT22;8100;50.994;4.538;2023-11-21T02:50:47;7.90;99.90
15991;DHT22;8100;50.994;4.538;2023-11-21T02:53:34;7.30;99.90
15991;DHT22;8100;50.994;4.538;2023-11-21T02:56:23;9.00;99.90
15991;DHT22;8100;50.994;4.538;2023-11-21T02:59:10;9.60;99.90
15991;DHT22;8100;50.994;4.538;2023-11-21T03:01:57;7.30;99.90
15991;DHT22;8100;50.994;4.538;2023-11-21T03:04:44;9.50;99.90
15991;DHT22;8100;50.994;4.538;2023-11-21T03:07:34;7.90;99.90
15991;DHT22;8100;50.994;4.538;2023-11-21T03:10:21;9.50;99.90
15991;DHT22;8100;50.994;4.538;2023-11-21T03:13:10;7.60;99.90
15991;DHT22;8100;50.994;4.538;2023-11-21T03:15:57;10.00;99.90
15991;DHT22;8100;50.994;4.538;2023-11-21T03:18:45;7.70;99.90
15991;DHT22;8100;50.994;4.538;2023-11-21T03:21:32;8.40;99.90
15991;DHT22;8100;50.994;4.538;2023-11-21T03:24:19;9.10;99.90
15991;DHT22;8100;50.994;4.538;2023-11-21T03:27:08;9.60;99.90
15991;DHT22;8100;50.994;4.538;2023-11-21T03:29:57;7.60;99.90
15991;DHT22;8100;50.994;4.538;2023-11-21T03:32:44;7.90;99.90
15991;DHT22;8100;50.994;4.538;2023-11-21T03:35:31;9.10;99.90
15991;DHT22;8100;50.994;4.538;2023-11-21T03:38:18;9.10;99.90
15991;DHT22;8100;50.994;4.538;2023-11-21T03:41:06;9.90;99.90
15991;DHT22;8100;50.994;4.538;2023-11-21T03:43:53;9.50;99.90
15991;DHT22;8100;50.994;4.538;2023-11-21T03:46:42;8.90;99.90
15991;DHT22;8100;50.994;4.538;2023-11-21T03:49:29;7.90;99.90
15991;DHT22;8100;50.994;4.538;2023-11-21T03:52:16;7.90;99.90
15991;DHT22;8100;50.994;4.538;2023-11-21T03:55:04;10.10;99.90
15991;DHT22;8100;50.994;4.538;2023-11-21T03:57:51;10.10;99.90
15991;DHT22;8100;50.994;4.538;2023-11-21T04:00:38;8.20;99.90
15991;DHT22;8100;50.994;4.538;2023-11-21T04:03:27;9.70;99.90
15991;DHT22;8100;50.994;4.538;2023-11-21T04:06:14;9.80;99.90
15991;DHT22;8100;50.994;4.538;2023-11-21T04:09:01;9.70;99.90
15991;DHT22;8100;50.994;4.538;2023-11-21T04:11:50;7.50;99.90
15991;DHT22;8100;50.994;4.538;2023-11-21T04:14:37;9.80;99.90
15991;DHT22;8100;50.994;4.538;2023-11-21T04:17:25;10.20;99.90
15991;DHT22;8100;50.994;4.538;2023-11-21T04:20:13;8.10;99.90
15991;DHT22;8100;50.994;4.538;2023-11-21T04:23:00;7.50;99.90
15991;DHT22;8100;50.994;4.538;2023-11-21T04:25:49;9.60;99.90
15991;DHT22;8100;50.994;4.538;2023-11-21T04:28:36;8.20;99.90
15991;DHT22;8100;50.994;4.538;2023-11-21T04:31:23;7.50;99.90
15991;DHT22;8100;50.994;4.538;2023-11-21T04:34:10;10.00;99.90
15991;DHT22;8100;50.994;4.538;2023-11-21T04:37:00;8.00;99.90
15991;DHT22;8100;50.994;4.538;2023-11-21T04:39:47;8.70;99.90
15991;DHT22;8100;50.994;4.538;2023-11-21T04:42:35;7.60;99.90
15991;DHT22;8100;50.994;4.538;2023-11-21T04:45:22;9.80;99.90
15991;DHT22;8100;50.994;4.538;2023-11-21T04:48:10;10.10;99.90
15991;DHT22;8100;50.994;4.538;2023-11-21T04:50:57;8.80;99.90
15991;DHT22;8100;50.994;4.538;2023-11-21T04:53:45;8.70;99.90
15991;DHT22;8100;50.994;4.538;2023-11-21T04:56:32;9.20;99.90
15991;DHT22;8100;50.994;4.538;2023-11-21T04:59:20;10.20;99.90
15991;DHT22;8100;50.994;4.538;2023-11-21T05:02:10;8.20;99.90
15991;DHT22;8100;50.994;4.538;2023-11-21T05:04:58;9.80;99.90
15991;DHT22;8100;50.994;4.538;2023-11-21T05:07:45;10.20;99.90
15991;DHT22;8100;50.994;4.538;2023-11-21T05:10:33;10.20;99.90
15991;DHT22;8100;50.994;4.538;2023-11-21T05:13:24;9.00;99.90
15991;DHT22;8100;50.994;4.538;2023-11-21T05:16:13;9.90;99.90
15991;DHT22;8100;50.994;4.538;2023-11-21T05:19:00;9.70;99.90
15991;DHT22;8100;50.994;4.538;2023-11-21T05:21:47;7.80;99.90
15991;DHT22;8100;50.994;4.538;2023-11-21T05:24:35;10.10;99.90
15991;DHT22;8100;50.994;4.538;2023-11-21T05:27:23;7.80;99.90
15991;DHT22;8100;50.994;4.538;2023-11-21T05:30:11;8.40;99.90
15991;DHT22;8100;50.994;4.538;2023-11-21T05:32:58;8.20;99.90
15991;DHT22;8100;50.994;4.538;2023-11-21T05:35:46;10.40;99.90
15991;DHT22;8100;50.994;4.538;2023-11-21T05:38:34;9.90;99.90
15991;DHT22;8100;50.994;4.538;2023-11-21T05:41:22;10.00;99.90
15991;DHT22;8100;50.994;4.538;2023-11-21T05:44:10;8.00;99.90
15991;DHT22;8100;50.994;4.538;2023-11-21T05:47:00;7.80;99.90
15991;DHT22;8100;50.994;4.538;2023-11-21T05:49:47;9.50;99.90
15991;DHT22;8100;50.994;4.538;2023-11-21T05:52:37;7.80;99.90
15991;DHT22;8100;50.994;4.538;2023-11-21T05:55:24;9.50;99.90
15991;DHT22;8100;50.994;4.538;2023-11-21T05:58:11;9.50;99.90
15991;DHT22;8100;50.994;4.538;2023-11-21T06:01:01;10.50;99.90
15991;DHT22;8100;50.994;4.538;2023-11-21T06:03:48;10.40;99.90
15991;DHT22;8100;50.994;4.538;2023-11-21T06:06:35;7.90;99.90
15991;DHT22;8100;50.994;4.538;2023-11-21T06:09:22;9.90;99.90
15991;DHT22;8100;50.994;4.538;2023-11-21T06:12:11;9.30;99.90
15991;DHT22;8100;50.994;4.538;2023-11-21T06:14:58;10.30;99.90
15991;DHT22;8100;50.994;4.538;2023-11-21T06:17:46;8.60;99.90
15991;DHT22;8100;50.994;4.538;2023-11-21T06:20:38;8.30;99.90
15991;DHT22;8100;50.994;4.538;2023-11-21T06:23:25;9.80;99.90
15991;DHT22;8100;50.994;4.538;2023-11-21T06:26:12;10.40;99.90
15991;DHT22;8100;50.994;4.538;2023-11-21T06:29:00;7.80;99.90
15991;DHT22;8100;50.994;4.538;2023-11-21T06:31:49;10.50;99.90
15991;DHT22;8100;50.994;4.538;2023-11-21T06:34:38;10.00;99.90
15991;DHT22;8100;50.994;4.538;2023-11-21T06:37:25;9.70;99.90
15991;DHT22;8100;50.994;4.538;2023-11-21T06:40:12;8.50;99.90
15991;DHT22;8100;50.994;4.538;2023-11-21T06:43:01;10.10;99.90
15991;DHT22;8100;50.994;4.538;2023-11-21T06:45:48;8.00;99.90
15991;DHT22;8100;50.994;4.538;2023-11-21T06:48:35;10.00;99.90
15991;DHT22;8100;50.994;4.538;2023-11-21T06:51:25;10.50;99.90
15991;DHT22;8100;50.994;4.538;2023-11-21T06:54:13;8.80;99.90
15991;DHT22;8100;50.994;4.538;2023-11-21T06:57:00;8.20;99.90
15991;DHT22;8100;50.994;4.538;2023-11-21T06:59:48;8.80;99.90
15991;DHT22;8100;50.994;4.538;2023-11-21T07:02:36;8.50;99.90
15991;DHT22;8100;50.994;4.538;2023-11-21T07:05:24;10.30;99.90
15991;DHT22;8100;50.994;4.538;2023-11-21T07:08:12;8.80;99.90
15991;DHT22;8100;50.994;4.538;2023-11-21T07:11:00;8.30;99.90
15991;DHT22;8100;50.994;4.538;2023-11-21T07:13:48;10.30;99.90
15991;DHT22;8100;50.994;4.538;2023-11-21T07:16:37;10.10;99.90
15991;DHT22;8100;50.994;4.538;2023-11-21T07:19:24;10.10;99.90
15991;DHT22;8100;50.994;4.538;2023-11-21T07:22:11;9.50;99.90
15991;DHT22;8100;50.994;4.538;2023-11-21T07:25:01;9.60;99.90
15991;DHT22;8100;50.994;4.538;2023-11-21T07:27:48;9.70;99.90
15991;DHT22;8100;50.994;4.538;2023-11-21T07:30:35;8.10;99.90
15991;DHT22;8100;50.994;4.538;2023-11-21T07:33:23;8.40;99.90
15991;DHT22;8100;50.994;4.538;2023-11-21T07:36:11;10.40;99.90
15991;DHT22;8100;50.994;4.538;2023-11-21T07:38:58;9.90;99.90
15991;DHT22;8100;50.994;4.538;2023-11-21T07:41:47;8.60;99.90
15991;DHT22;8100;50.994;4.538;2023-11-21T07:44:35;8.70;99.90
15991;DHT22;8100;50.994;4.538;2023-11-21T07:47:23;8.20;99.90
15991;DHT22;8100;50.994;4.538;2023-11-21T07:50:13;10.70;99.90
15991;DHT22;8100;50.994;4.538;2023-11-21T07:53:00;8.20;99.90
15991;DHT22;8100;50.994;4.538;2023-11-21T07:55:47;8.40;99.90
15991;DHT22;8100;50.994;4.538;2023-11-21T07:58:36;8.30;99.90
15991;DHT22;8100;50.994;4.538;2023-11-21T08:01:24;8.20;99.90
15991;DHT22;8100;50.994;4.538;2023-11-21T08:04:11;10.40;99.90
15991;DHT22;8100;50.994;4.538;2023-11-21T08:06:58;8.50;99.90
15991;DHT22;8100;50.994;4.538;2023-11-21T08:09:46;10.90;99.90
15991;DHT22;8100;50.994;4.538;2023-11-21T08:12:36;9.00;99.90
15991;DHT22;8100;50.994;4.538;2023-11-21T08:15:25;10.80;99.90
15991;DHT22;8100;50.994;4.538;2023-11-21T08:18:13;8.70;99.90
15991;DHT22;8100;50.994;4.538;2023-11-21T08:21:00;10.40;99.90
15991;DHT22;8100;50.994;4.538;2023-11-21T08:23:49;8.80;99.90
15991;DHT22;8100;50.994;4.538;2023-11-21T08:26:39;9.60;99.90
15991;DHT22;8100;50.994;4.538;2023-11-21T08:29:27;8.50;99.90
15991;DHT22;8100;50.994;4.538;2023-11-21T08:32:16;9.50;99.90
15991;DHT22;8100;50.994;4.538;2023-11-21T08:35:03;9.70;99.90
15991;DHT22;8100;50.994;4.538;2023-11-21T08:37:51;10.10;99.90
15991;DHT22;8100;50.994;4.538;2023-11-21T08:40:39;10.40;99.90
15991;DHT22;8100;50.994;4.538;2023-11-21T08:43:27;8.60;99.90
15991;DHT22;8100;50.994;4.538;2023-11-21T08:46:14;9.00;99.90
15991;DHT22;8100;50.994;4.538;2023-11-21T08:49:04;8.60;99.90
15991;DHT22;8100;50.994;4.538;2023-11-21T08:51:52;9.60;99.90
15991;DHT22;8100;50.994;4.538;2023-11-21T08:54:41;8.80;99.90
15991;DHT22;8100;50.994;4.538;2023-11-21T08:57:29;9.50;99.90
15991;DHT22;8100;50.994;4.538;2023-11-21T09:00:17;10.90;99.90
15991;DHT22;8100;50.994;4.538;2023-11-21T09:03:05;9.60;99.90
15991;DHT22;8100;50.994;4.538;2023-11-21T09:05:55;9.50;99.90
15991;DHT22;8100;50.994;4.538;2023-11-21T09:08:43;10.50;99.90
15991;DHT22;8100;50.994;4.538;2023-11-21T09:11:30;9.50;99.90
15991;DHT22;8100;50.994;4.538;2023-11-21T09:14:19;9.10;99.90
15991;DHT22;8100;50.994;4.538;2023-11-21T09:17:06;8.90;99.90
15991;DHT22;8100;50.994;4.538;2023-11-21T09:19:56;11.20;99.90
15991;DHT22;8100;50.994;4.538;2023-11-21T09:22:45;11.00;99.90
15991;DHT22;8100;50.994;4.538;2023-11-21T09:25:32;10.80;99.90
15991;DHT22;8100;50.994;4.538;2023-11-21T09:28:21;11.40;99.90
15991;DHT22;8100;50.994;4.538;2023-11-21T09:31:08;10.90;99.90
15991;DHT22;8100;50.994;4.538;2023-11-21T09:33:55;9.80;99.90
15991;DHT22;8100;50.994;4.538;2023-11-21T09:36:45;11.50;99.90
15991;DHT22;8100;50.994;4.538;2023-11-21T09:39:34;10.80;99.90
15991;DHT22;8100;50.994;4.538;2023-11-21T09:42:27;9.10;99.90
15991;DHT22;8100;50.994;4.538;2023-11-21T09:45:21;8.90;99.90
15991;DHT22;8100;50.994;4.538;2023-11-21T09:48:11;10.80;99.90
15991;DHT22;8100;50.994;4.538;2023-11-21T09:51:00;10.00;99.90
15991;DHT22;8100;50.994;4.538;2023-11-21T09:53:50;9.00;99.90
15991;DHT22;8100;50.994;4.538;2023-11-21T09:56:40;9.60;99.90
15991;DHT22;8100;50.994;4.538;2023-11-21T09:59:30;10.20;99.90
15991;DHT22;8100;50.994;4.538;2023-11-21T10:02:18;11.60;99.90
15991;DHT22;8100;50.994;4.538;2023-11-21T10:05:07;11.30;99.90
15991;DHT22;8100;50.994;4.538;2023-11-21T10:07:56;11.70;99.90
15991;DHT22;8100;50.994;4.538;2023-11-21T10:10:45;11.50;99.90
15991;DHT22;8100;50.994;4.538;2023-11-21T10:13:35;11.30;99.90
15991;DHT22;8100;50.994;4.538;2023-11-21T10:16:26;10.30;99.90
15991;DHT22;8100;50.994;4.538;2023-11-21T10:19:13;11.20;99.90
15991;DHT22;8100;50.994;4.538;2023-11-21T10:22:02;11.20;99.90
15991;DHT22;8100;50.994;4.538;2023-11-21T10:24:49;11.90;99.90
15991;DHT22;8100;50.994;4.538;2023-11-21T10:27:37;10.00;99.90
15991;DHT22;8100;50.994;4.538;2023-11-21T10:30:32;11.50;99.90
15991;DHT22;8100;50.994;4.538;2023-11-21T10:33:27;10.50;99.90
15991;DHT22;8100;50.994;4.538;2023-11-21T10:36:25;9.70;99.90
15991;DHT22;8100;50.994;4.538;2023-11-21T10:39:14;10.90;99.90
15991;DHT22;8100;50.994;4.538;2023-11-21T10:42:04;11.40;99.90
15991;DHT22;8100;50.994;4.538;2023-11-21T10:44:55;11.00;99.90
15991;DHT22;8100;50.994;4.538;2023-11-21T10:47:44;9.80;99.90
15991;DHT22;8100;50.994;4.538;2023-11-21T10:50:32;11.40;99.90
15991;DHT22;8100;50.994;4.538;2023-11-21T10:53:20;10.00;99.90
15991;DHT22;8100;50.994;4.538;2023-11-21T10:56:08;10.10;99.90
15991;DHT22;8100;50.994;4.538;2023-11-21T10:58:57;11.50;99.90
15991;DHT22;8100;50.994;4.538;2023-11-21T11:01:45;11.30;99.90
15991;DHT22;8100;50.994;4.538;2023-11-21T11:04:34;11.00;99.90
15991;DHT22;8100;50.994;4.538;2023-11-21T11:07:26;12.20;99.90
15991;DHT22;8100;50.994;4.538;2023-11-21T11:10:14;12.10;99.90
15991;DHT22;8100;50.994;4.538;2023-11-21T11:13:02;10.90;99.90
15991;DHT22;8100;50.994;4.538;2023-11-21T11:15:49;12.10;99.90
15991;DHT22;8100;50.994;4.538;2023-11-21T11:18:37;11.90;99.90
15991;DHT22;8100;50.994;4.538;2023-11-21T11:21:34;11.60;99.90
15991;DHT22;8100;50.994;4.538;2023-11-21T11:24:49;12.00;99.90
15991;DHT22;8100;50.994;4.538;2023-11-21T11:27:52;11.20;99.90
15991;DHT22;8100;50.994;4.538;2023-11-21T11:30:50;11.80;99.90
15991;DHT22;8100;50.994;4.538;2023-11-21T11:33:43;11.80;99.90
15991;DHT22;8100;50.994;4.538;2023-11-21T11:36:36;11.80;99.90
15991;DHT22;8100;50.994;4.538;2023-11-21T11:39:29;11.40;99.90
15991;DHT22;8100;50.994;4.538;2023-11-21T11:42:17;11.60;99.90
15991;DHT22;8100;50.994;4.538;2023-11-21T11:45:17;11.10;99.90
15991;DHT22;8100;50.994;4.538;2023-11-21T11:48:05;11.00;99.90
15991;DHT22;8100;50.994;4.538;2023-11-21T11:51:03;11.40;99.90
15991;DHT22;8100;50.994;4.538;2023-11-21T11:53:52;11.20;99.90
15991;DHT22;8100;50.994;4.538;2023-11-21T11:56:39;11.20;99.90
15991;DHT22;8100;50.994;4.538;2023-11-21T11:59:26;11.10;99.90
15991;DHT22;8100;50.994;4.538;2023-11-21T12:02:15;10.50;99.90
15991;DHT22;8100;50.994;4.538;2023-11-21T12:05:08;10.60;99.90
15991;DHT22;8100;50.994;4.538;2023-11-21T12:07:57;10.70;99.90
15991;DHT22;8100;50.994;4.538;2023-11-21T12:10:46;11.20;99.90
15991;DHT22;8100;50.994;4.538;2023-11-21T12:13:34;11.30;99.90
15991;DHT22;8100;50.994;4.538;2023-11-21T12:16:23;11.00;99.90
15991;DHT22;8100;50.994;4.538;2023-11-21T12:19:13;11.30;99.90
15991;DHT22;8100;50.994;4.538;2023-11-21T12:22:00;11.00;99.90
15991;DHT22;8100;50.994;4.538;2023-11-21T12:24:47;11.40;99.90
15991;DHT22;8100;50.994;4.538;2023-11-21T12:27:36;11.40;99.90
15991;DHT22;8100;50.994;4.538;2023-11-21T12:30:25;11.40;99.90
15991;DHT22;8100;50.994;4.538;2023-11-21T12:33:14;11.50;99.90
15991;DHT22;8100;50.994;4.538;2023-11-21T12:36:04;11.30;99.90
15991;DHT22;8100;50.994;4.538;2023-11-21T12:38:52;11.20;99.90
15991;DHT22;8100;50.994;4.538;2023-11-21T12:41:39;11.10;99.90
15991;DHT22;8100;50.994;4.538;2023-11-21T12:44:28;11.00;99.90
15991;DHT22;8100;50.994;4.538;2023-11-21T12:47:17;10.80;99.90
15991;DHT22;8100;50.994;4.538;2023-11-21T12:50:05;11.30;99.90
15991;DHT22;8100;50.994;4.538;2023-11-21T12:52:57;11.00;99.90
15991;DHT22;8100;50.994;4.538;2023-11-21T12:55:44;11.10;99.90
15991;DHT22;8100;50.994;4.538;2023-11-21T12:58:38;11.10;99.90
15991;DHT22;8100;50.994;4.538;2023-11-21T13:01:27;11.00;99.90
15991;DHT22;8100;50.994;4.538;2023-11-21T13:04:15;11.20;99.90
15991;DHT22;8100;50.994;4.538;2023-11-21T13:07:05;11.40;99.90
15991;DHT22;8100;50.994;4.538;2023-11-21T13:10:00;11.50;99.90
15991;DHT22;8100;50.994;4.538;2023-11-21T13:12:53;10.80;99.90
15991;DHT22;8100;50.994;4.538;2023-11-21T13:15:40;11.30;99.90
15991;DHT22;8100;50.994;4.538;2023-11-21T13:18:35;10.60;99.90
15991;DHT22;8100;50.994;4.538;2023-11-21T13:21:22;11.30;99.90
15991;DHT22;8100;50.994;4.538;2023-11-21T13:24:10;10.40;99.90
15991;DHT22;8100;50.994;4.538;2023-11-21T13:26:57;11.20;99.90
15991;DHT22;8100;50.994;4.538;2023-11-21T13:29:45;11.30;99.90
15991;DHT22;8100;50.994;4.538;2023-11-21T13:32:32;11.20;99.90
15991;DHT22;8100;50.994;4.538;2023-11-21T13:35:20;10.30;99.90
15991;DHT22;8100;50.994;4.538;2023-11-21T13:38:18;10.70;99.90
15991;DHT22;8100;50.994;4.538;2023-11-21T13:41:09;11.30;99.90
15991;DHT22;8100;50.994;4.538;2023-11-21T13:43:58;10.60;99.90
15991;DHT22;8100;50.994;4.538;2023-11-21T13:46:55;11.00;99.90
15991;DHT22;8100;50.994;4.538;2023-11-21T13:49:44;10.50;99.90
15991;DHT22;8100;50.994;4.538;2023-11-21T13:52:32;11.20;99.90
15991;DHT22;8100;50.994;4.538;2023-11-21T13:55:21;11.40;99.90
15991;DHT22;8100;50.994;4.538;2023-11-21T13:58:11;10.40;99.90
15991;DHT22;8100;50.994;4.538;2023-11-21T14:01:04;10.50;99.90
15991;DHT22;8100;50.994;4.538;2023-11-21T14:03:54;10.70;99.90
15991;DHT22;8100;50.994;4.538;2023-11-21T14:06:49;10.50;99.90
15991;DHT22;8100;50.994;4.538;2023-11-21T14:09:41;10.20;99.90
15991;DHT22;8100;50.994;4.538;2023-11-21T14:12:30;10.10;99.90
15991;DHT22;8100;50.994;4.538;2023-11-21T14:15:20;10.10;99.90
15991;DHT22;8100;50.994;4.538;2023-11-21T14:18:08;10.60;99.90
15991;DHT22;8100;50.994;4.538;2023-11-21T14:20:57;10.90;99.90
15991;DHT22;8100;50.994;4.538;2023-11-21T14:23:44;10.80;99.90
15991;DHT22;8100;50.994;4.538;2023-11-21T14:26:34;10.10;99.90
15991;DHT22;8100;50.994;4.538;2023-11-21T14:29:21;10.40;99.90
15991;DHT22;8100;50.994;4.538;2023-11-21T14:32:09;10.30;99.90
15991;DHT22;8100;50.994;4.538;2023-11-21T14:34:57;11.20;99.90
15991;DHT22;8100;50.994;4.538;2023-11-21T14:37:45;10.40;99.90
15991;DHT22;8100;50.994;4.538;2023-11-21T14:40:33;11.20;99.90
15991;DHT22;8100;50.994;4.538;2023-11-21T14:43:23;10.50;99.90
15991;DHT22;8100;50.994;4.538;2023-11-21T14:46:12;10.20;99.90
15991;DHT22;8100;50.994;4.538;2023-11-21T14:49:03;10.60;99.90
15991;DHT22;8100;50.994;4.538;2023-11-21T14:52:05;9.90;99.90
15991;DHT22;8100;50.994;4.538;2023-11-21T14:55:05;10.50;99.90
15991;DHT22;8100;50.994;4.538;2023-11-21T14:58:11;10.80;99.90
15991;DHT22;8100;50.994;4.538;2023-11-21T15:01:03;10.10;99.90
15991;DHT22;8100;50.994;4.538;2023-11-21T15:03:49;11.10;99.90
15991;DHT22;8100;50.994;4.538;2023-11-21T15:06:37;11.10;99.90
15991;DHT22;8100;50.994;4.538;2023-11-21T15:09:27;10.00;99.90
15991;DHT22;8100;50.994;4.538;2023-11-21T15:12:25;9.80;99.90
15991;DHT22;8100;50.994;4.538;2023-11-21T15:15:18;11.10;99.90
15991;DHT22;8100;50.994;4.538;2023-11-21T15:18:08;10.00;99.90
15991;DHT22;8100;50.994;4.538;2023-11-21T15:20:58;10.20;99.90
15991;DHT22;8100;50.994;4.538;2023-11-21T15:23:45;11.00;99.90
15991;DHT22;8100;50.994;4.538;2023-11-21T15:26:32;10.40;99.90
15991;DHT22;8100;50.994;4.538;2023-11-21T15:29:19;10.20;99.90
15991;DHT22;8100;50.994;4.538;2023-11-21T15:32:10;10.00;99.90
15991;DHT22;8100;50.994;4.538;2023-11-21T15:34:59;10.10;99.90
15991;DHT22;8100;50.994;4.538;2023-11-21T15:37:46;11.00;99.90
15991;DHT22;8100;50.994;4.538;2023-11-21T15:40:34;10.70;99.90
15991;DHT22;8100;50.994;4.538;2023-11-21T15:43:21;10.00;99.90
15991;DHT22;8100;50.994;4.538;2023-11-21T15:46:08;10.20;99.90
15991;DHT22;8100;50.994;4.538;2023-11-21T15:48:55;9.60;99.90
15991;DHT22;8100;50.994;4.538;2023-11-21T15:51:44;9.60;99.90
15991;DHT22;8100;50.994;4.538;2023-11-21T15:54:33;10.80;99.90
15991;DHT22;8100;50.994;4.538;2023-11-21T15:57:21;9.60;99.90
15991;DHT22;8100;50.994;4.538;2023-11-21T16:00:09;11.00;99.90
15991;DHT22;8100;50.994;4.538;2023-11-21T16:03:02;10.30;99.90
15991;DHT22;8100;50.994;4.538;2023-11-21T16:05:49;9.50;99.90
15991;DHT22;8100;50.994;4.538;2023-11-21T16:08:38;10.90;99.90
15991;DHT22;8100;50.994;4.538;2023-11-21T16:11:25;9.60;99.90
15991;DHT22;8100;50.994;4.538;2023-11-21T16:14:15;10.90;99.90
15991;DHT22;8100;50.994;4.538;2023-11-21T16:17:05;10.90;99.90
15991;DHT22;8100;50.994;4.538;2023-11-21T16:19:53;10.60;99.90
15991;DHT22;8100;50.994;4.538;2023-11-21T16:22:41;10.80;99.90
15991;DHT22;8100;50.994;4.538;2023-11-21T16:25:30;9.40;99.90
15991;DHT22;8100;50.994;4.538;2023-11-21T16:28:18;10.40;99.90
15991;DHT22;8100;50.994;4.538;2023-11-21T16:31:05;10.80;99.90
15991;DHT22;8100;50.994;4.538;2023-11-21T16:33:52;9.90;99.90
15991;DHT22;8100;50.994;4.538;2023-11-21T16:36:39;10.50;99.90
15991;DHT22;8100;50.994;4.538;2023-11-21T16:39:27;10.70;99.90
15991;DHT22;8100;50.994;4.538;2023-11-21T16:42:16;10.70;99.90
15991;DHT22;8100;50.994;4.538;2023-11-21T16:45:04;10.20;99.90
15991;DHT22;8100;50.994;4.538;2023-11-21T16:47:51;10.60;99.90
15991;DHT22;8100;50.994;4.538;2023-11-21T16:50:42;10.60;99.90
15991;DHT22;8100;50.994;4.538;2023-11-21T16:53:30;9.40;99.90
15991;DHT22;8100;50.994;4.538;2023-11-21T16:56:17;9.30;99.90
15991;DHT22;8100;50.994;4.538;2023-11-21T16:59:06;9.40;99.90
15991;DHT22;8100;50.994;4.538;2023-11-21T17:01:53;9.60;99.90
15991;DHT22;8100;50.994;4.538;2023-11-21T17:04:41;10.50;99.90
15991;DHT22;8100;50.994;4.538;2023-11-21T17:07:30;10.10;99.90
15991;DHT22;8100;50.994;4.538;2023-11-21T17:10:18;9.20;99.90
15991;DHT22;8100;50.994;4.538;2023-11-21T17:13:07;10.40;99.90
15991;DHT22;8100;50.994;4.538;2023-11-21T17:15:56;10.40;99.90
15991;DHT22;8100;50.994;4.538;2023-11-21T17:18:43;9.50;99.90
15991;DHT22;8100;50.994;4.538;2023-11-21T17:21:30;10.10;99.90
15991;DHT22;8100;50.994;4.538;2023-11-21T17:24:19;10.20;99.90
15991;DHT22;8100;50.994;4.538;2023-11-21T17:27:06;10.40;99.90
15991;DHT22;8100;50.994;4.538;2023-11-21T17:29:53;9.90;99.90
15991;DHT22;8100;50.994;4.538;2023-11-21T17:32:43;9.20;99.90
15991;DHT22;8100;50.994;4.538;2023-11-21T17:35:31;9.50;99.90
15991;DHT22;8100;50.994;4.538;2023-11-21T17:38:18;9.90;99.90
15991;DHT22;8100;50.994;4.538;2023-11-21T17:41:05;9.30;99.90
15991;DHT22;8100;50.994;4.538;2023-11-21T17:43:54;9.20;99.90
15991;DHT22;8100;50.994;4.538;2023-11-21T17:46:41;10.10;99.90
15991;DHT22;8100;50.994;4.538;2023-11-21T17:49:31;9.40;99.90
15991;DHT22;8100;50.994;4.538;2023-11-21T17:52:19;10.20;99.90
15991;DHT22;8100;50.994;4.538;2023-11-21T17:55:08;9.80;99.90
15991;DHT22;8100;50.994;4.538;2023-11-21T17:57:55;9.70;99.90
15991;DHT22;8100;50.994;4.538;2023-11-21T18:00:43;9.80;99.90
15991;DHT22;8100;50.994;4.538;2023-11-21T18:03:31;9.60;99.90
15991;DHT22;8100;50.994;4.538;2023-11-21T18:06:19;9.50;99.90
15991;DHT22;8100;50.994;4.538;2023-11-21T18:09:06;9.50;99.90
15991;DHT22;8100;50.994;4.538;2023-11-21T18:11:54;9.70;99.90